createdAt,value
2023-07-28T00:02:35.394Z,33.9
2023-07-28T00:07:53.685Z,33.1
2023-07-28T00:13:14.755Z,33
2023-07-28T00:18:33.066Z,33.5
2023-07-28T00:23:51.250Z,33.4
2023-07-28T00:29:09.558Z,34.3
2023-07-28T00:34:28.083Z,34.3
2023-07-28T00:39:46.275Z,34.4
2023-07-28T00:45:04.414Z,33.7
2023-07-28T00:50:22.740Z,34.8
2023-07-28T00:55:41.115Z,34.1
2023-07-28T01:00:59.237Z,33.8
2023-07-28T01:06:17.804Z,34.7
2023-07-28T01:11:36.417Z,34.8
2023-07-28T01:16:54.541Z,34.4
2023-07-28T01:22:12.865Z,34
2023-07-28T01:27:30.860Z,33.9
2023-07-28T01:32:49.233Z,34.3
2023-07-28T01:38:07.758Z,33.4
2023-07-28T01:43:25.909Z,34.5
2023-07-28T01:48:44.118Z,33.6
2023-07-28T01:54:02.444Z,33.5
2023-07-28T01:59:20.624Z,34.7
2023-07-28T02:04:38.929Z,34.7
2023-07-28T02:09:57.249Z,34.1
2023-07-28T02:15:15.699Z,34.6
2023-07-28T02:20:34.232Z,34.5
2023-07-28T02:25:55.579Z,32.9
2023-07-28T02:31:13.859Z,33.5
2023-07-28T02:36:32.415Z,34.5
2023-07-28T02:41:50.915Z,33.2
2023-07-28T02:47:09.640Z,34.8
2023-07-28T02:52:28.142Z,33.9
2023-07-28T02:57:46.671Z,34.4
2023-07-28T03:03:05.861Z,33.7
2023-07-28T03:08:24.283Z,34.1
2023-07-28T03:13:42.641Z,34
2023-07-28T03:19:01.080Z,33.8
2023-07-28T03:24:19.373Z,34.4
2023-07-28T03:29:37.650Z,33.2
2023-07-28T03:34:55.870Z,33.3
2023-07-28T03:40:14.254Z,33.2
2023-07-28T03:45:32.614Z,33.9
2023-07-28T03:50:50.852Z,33.2
2023-07-28T03:56:09.165Z,33
2023-07-28T04:01:27.637Z,34.1
2023-07-28T04:06:46.080Z,32.9
2023-07-28T04:12:04.372Z,33.4
2023-07-28T04:17:22.675Z,32.9
2023-07-28T04:22:41.044Z,33.3
2023-07-28T04:27:59.021Z,33.1
2023-07-28T04:33:17.352Z,33.4
2023-07-28T04:38:36.072Z,34
2023-07-28T04:43:54.414Z,34.7
2023-07-28T04:49:12.932Z,34.9
2023-07-28T04:54:31.281Z,34.8
2023-07-28T04:59:49.391Z,34.8
2023-07-28T05:05:07.536Z,35.2
2023-07-28T05:10:25.929Z,34.4
2023-07-28T05:15:44.244Z,33.5
2023-07-28T05:21:02.764Z,33.2
2023-07-28T05:26:21.159Z,34.1
2023-07-28T05:31:39.523Z,34.1
2023-07-28T05:36:57.856Z,33.3
2023-07-28T05:42:16.557Z,33.2
2023-07-28T05:47:35.169Z,32.9
2023-07-28T05:52:53.761Z,33.5
2023-07-28T05:58:11.770Z,33.3
2023-07-28T06:03:29.968Z,33.3
2023-07-28T06:08:48.385Z,33.5
2023-07-28T06:14:07.010Z,33.7
2023-07-28T06:19:25.503Z,33.2
2023-07-28T06:24:43.842Z,33.6
2023-07-28T06:30:02.427Z,33.4
2023-07-28T06:35:20.933Z,32.9
2023-07-28T06:40:39.043Z,33.4
2023-07-28T06:45:57.541Z,33.1
2023-07-28T06:51:15.930Z,33.3
2023-07-28T06:56:34.070Z,33.9
2023-07-28T07:01:53.124Z,32.7
2023-07-28T07:07:11.548Z,33
2023-07-28T07:12:30.112Z,32.4
2023-07-28T07:17:48.764Z,32.6
2023-07-28T07:23:10.811Z,33.6
2023-07-28T07:28:28.836Z,33.6
2023-07-28T07:33:47.478Z,34.2
2023-07-28T07:39:05.979Z,33.5
2023-07-28T07:44:23.959Z,34
2023-07-28T07:49:26.536Z,33.5
2023-07-28T07:54:44.864Z,33
2023-07-28T08:00:02.985Z,34
2023-07-28T08:05:21.167Z,33.5
2023-07-28T08:10:39.678Z,34.1
2023-07-28T08:15:58.273Z,32.5
2023-07-28T08:21:23.590Z,33.4
2023-07-28T08:26:41.963Z,32.3
2023-07-28T08:32:00.241Z,32.8
2023-07-28T08:37:19.040Z,33.2
2023-07-28T08:42:37.396Z,32.7
2023-07-28T08:47:55.732Z,33.2
2023-07-28T08:53:13.917Z,34.4
2023-07-28T08:58:33.654Z,33.9
2023-07-28T09:03:52.112Z,33.1
2023-07-28T09:09:10.800Z,33.8
2023-07-28T09:14:28.850Z,32
2023-07-28T09:19:46.842Z,32.6
2023-07-28T09:25:05.045Z,33.3
2023-07-28T09:30:07.617Z,31.9
2023-07-28T09:35:26.146Z,32.2
2023-07-28T09:40:44.194Z,33
2023-07-28T09:45:47.045Z,32.7
2023-07-28T09:51:05.536Z,33.5
2023-07-28T09:56:23.773Z,34.8
2023-07-28T10:01:42.193Z,34.5
2023-07-28T10:07:00.798Z,34.5
2023-07-28T10:12:19.122Z,33.6
2023-07-28T10:17:24.340Z,34
2023-07-28T10:22:42.546Z,34.5
2023-07-28T10:28:00.964Z,34.2
2023-07-28T10:33:19.163Z,33.7
2023-07-28T10:38:37.545Z,33.6
2023-07-28T10:43:56.103Z,33.5
2023-07-28T10:49:14.423Z,33.7
2023-07-28T10:54:32.596Z,33.4
2023-07-28T10:59:50.784Z,34.3
2023-07-28T11:05:09.220Z,34
2023-07-28T11:10:27.891Z,33.3
2023-07-28T11:15:46.578Z,33.5
2023-07-28T11:21:04.917Z,33.5
2023-07-28T11:26:23.408Z,32.9
2023-07-28T11:31:41.611Z,32.8
2023-07-28T11:36:59.723Z,33
2023-07-28T11:42:18.708Z,34.2
2023-07-28T11:47:37.311Z,34.3
2023-07-28T11:52:55.502Z,34.5
2023-07-28T11:58:13.490Z,33.7
2023-07-28T12:03:32.868Z,34.1
2023-07-28T12:08:51.661Z,33.7
2023-07-28T12:19:37.332Z,34.6
2023-07-28T12:24:56.118Z,34.5
2023-07-28T12:30:18.505Z,34
2023-07-28T12:41:10.779Z,33.8
2023-07-28T12:46:31.518Z,34.2
2023-07-28T12:51:58.489Z,33.9
2023-07-28T12:57:17.114Z,34.3
2023-07-28T13:02:39.807Z,34.5
2023-07-28T13:13:25.474Z,35
2023-07-28T13:18:44.306Z,35.1
2023-07-28T13:24:02.817Z,34.9
2023-07-28T13:29:21.708Z,34.8
2023-07-28T13:34:40.231Z,34.4
2023-07-28T13:39:59.197Z,34.4
2023-07-28T13:45:17.379Z,34.9
2023-07-28T13:50:39.222Z,35.9
2023-07-28T13:55:59.072Z,35.5
2023-07-28T14:01:17.228Z,35.9
2023-07-28T14:06:35.557Z,35.2
2023-07-28T14:11:53.979Z,35
2023-07-28T14:17:12.157Z,35.8
2023-07-28T14:22:30.312Z,35.6
2023-07-28T14:27:49.156Z,35.8
2023-07-28T14:33:07.575Z,36.2
2023-07-28T14:38:25.539Z,36
2023-07-28T14:43:43.904Z,36
2023-07-28T14:49:01.862Z,36.2
2023-07-28T14:54:20.386Z,35.8
2023-07-28T14:59:38.636Z,36.5
2023-07-28T15:04:56.741Z,35.2
2023-07-28T15:10:14.990Z,35.6
2023-07-28T15:15:33.325Z,36
2023-07-28T15:20:52.145Z,36.8
2023-07-28T15:26:10.465Z,36.7
2023-07-28T15:31:29.083Z,35.7
2023-07-28T15:36:47.709Z,35.9
2023-07-28T15:42:05.818Z,36.1
2023-07-28T15:47:24.321Z,36.1
2023-07-28T15:52:42.936Z,36.8
2023-07-28T15:58:01.644Z,36.7
2023-07-28T16:03:20.411Z,36.7
2023-07-28T16:08:38.784Z,35.8
2023-07-28T16:13:57.114Z,36
2023-07-28T16:19:15.682Z,36.2
2023-07-28T16:24:34.200Z,37
2023-07-28T16:29:52.355Z,36
2023-07-28T16:35:10.782Z,36.4
2023-07-28T16:40:29.304Z,36.1
2023-07-28T16:45:47.851Z,36.1
2023-07-28T16:51:06.471Z,36.1
2023-07-28T16:56:25.044Z,36.2
2023-07-28T17:01:43.464Z,36.1
2023-07-28T17:07:01.924Z,36
2023-07-28T17:12:20.173Z,36.6
2023-07-28T17:17:38.438Z,36.3
2023-07-28T17:22:56.777Z,36.5
2023-07-28T17:28:15.416Z,37.1
2023-07-28T17:33:33.392Z,36.6
2023-07-28T17:38:51.765Z,36.9
2023-07-28T17:44:09.920Z,37.1
2023-07-28T17:49:28.721Z,36.8
2023-07-28T17:54:46.729Z,36.6
2023-07-28T18:00:04.881Z,37.1
2023-07-28T18:05:24.920Z,36.5
2023-07-28T18:10:43.359Z,37.3
2023-07-28T18:16:01.728Z,36.7
2023-07-28T18:21:19.896Z,36.5
2023-07-28T18:26:38.321Z,37.4
2023-07-28T18:31:56.617Z,37.4
2023-07-28T18:37:15.013Z,36.4
2023-07-28T18:42:33.394Z,36.7
2023-07-28T18:47:51.730Z,36.8
2023-07-28T18:53:09.678Z,36.8
2023-07-28T18:58:27.906Z,37.1
2023-07-28T19:03:46.398Z,37.3
2023-07-28T19:09:04.647Z,37.5
2023-07-28T19:14:23.329Z,36.5
2023-07-28T19:19:42.019Z,37.3
2023-07-28T19:25:00.174Z,37
2023-07-28T19:30:18.408Z,36.5
2023-07-28T19:35:36.715Z,37.3
2023-07-28T19:40:54.897Z,36
2023-07-28T19:45:57.793Z,37.5
2023-07-28T19:51:15.963Z,37.1
2023-07-28T19:56:35.313Z,37.9
2023-07-28T20:01:54.207Z,36.6
2023-07-28T20:07:12.407Z,37.7
2023-07-28T20:12:30.567Z,37.2
2023-07-28T20:17:49.203Z,36.8
2023-07-28T20:23:07.444Z,37.3
2023-07-28T20:28:26.029Z,37.9
2023-07-28T20:33:44.555Z,37
2023-07-28T20:39:02.714Z,37.7
2023-07-28T20:44:20.829Z,37.2
2023-07-28T20:49:39.071Z,37.7
2023-07-28T20:54:57.191Z,36.8
2023-07-28T21:00:15.727Z,38
2023-07-28T21:05:34.149Z,36.7
2023-07-28T21:10:52.470Z,38
2023-07-28T21:16:11.292Z,37.2
2023-07-28T21:21:29.404Z,38.1
2023-07-28T21:26:47.645Z,38.1
2023-07-28T21:32:06.178Z,37.2
2023-07-28T21:37:24.611Z,37.9
2023-07-28T21:42:42.930Z,37.9
2023-07-28T21:48:01.571Z,37.2
2023-07-28T21:53:19.917Z,37.6
2023-07-28T21:58:38.304Z,37.2
2023-07-28T22:03:57.317Z,37.2
2023-07-28T22:09:15.996Z,37.4
2023-07-28T22:14:34.196Z,38
2023-07-28T22:19:52.730Z,37.3
2023-07-28T22:25:11.092Z,38.2
2023-07-28T22:30:29.247Z,37.3
2023-07-28T22:35:47.399Z,37.6
2023-07-28T22:41:05.596Z,38.3
2023-07-28T22:46:23.922Z,37.4
2023-07-28T22:51:42.236Z,38.5
2023-07-28T22:57:00.426Z,38.2
2023-07-28T23:02:18.844Z,38.4
2023-07-28T23:07:37.298Z,37.8
2023-07-28T23:12:55.493Z,37.7
2023-07-28T23:18:13.815Z,38.3
2023-07-28T23:23:32.332Z,37.5
2023-07-28T23:28:50.728Z,37.8
2023-07-28T23:34:09.055Z,37.9
2023-07-28T23:39:27.583Z,37.8
2023-07-28T23:44:45.997Z,37.7
2023-07-28T23:50:04.310Z,38.4
2023-07-28T23:55:22.663Z,37.9
